createdAt,value
2018-09-05T00:01:14.781Z,83.01
2018-09-05T00:03:43.191Z,82.58
2018-09-05T00:06:11.414Z,83.35
2018-09-05T00:08:39.640Z,83.71
2018-09-05T00:11:07.845Z,83.85
2018-09-05T00:13:36.001Z,83.26
2018-09-05T00:16:04.131Z,84.05
2018-09-05T00:18:32.989Z,84.36
2018-09-05T00:21:01.123Z,84.89
2018-09-05T00:23:29.254Z,84.60
2018-09-05T00:25:57.411Z,84.40
2018-09-05T00:28:25.667Z,84.89
2018-09-05T00:30:53.783Z,85.02
2018-09-05T00:33:22.175Z,85.52
2018-09-05T00:35:50.554Z,84.92
2018-09-05T00:38:18.745Z,85.73
2018-09-05T00:40:46.899Z,85.11
2018-09-05T00:43:15.033Z,85.56
2018-09-05T00:45:43.210Z,85.41
2018-09-05T00:48:11.415Z,84.87
2018-09-05T00:50:39.539Z,85.34
2018-09-05T00:53:07.669Z,85.29
2018-09-05T00:55:35.794Z,85.29
2018-09-05T00:58:03.952Z,85.38
2018-09-05T01:00:32.049Z,85.22
2018-09-05T01:03:00.453Z,85.43
2018-09-05T01:05:28.551Z,85.62
2018-09-05T01:07:56.693Z,86.29
2018-09-05T01:10:31.746Z,86.26
2018-09-05T01:12:59.885Z,86.06
2018-09-05T01:15:28.037Z,86.17
2018-09-05T01:17:56.352Z,86.73
2018-09-05T01:20:24.584Z,87.10
2018-09-05T01:22:52.833Z,87.50
2018-09-05T01:25:21.017Z,87.28
2018-09-05T01:27:49.213Z,87.28
2018-09-05T01:30:17.329Z,87.37
2018-09-05T01:32:45.477Z,88.05
2018-09-05T01:35:13.657Z,88.08
2018-09-05T01:37:42.357Z,87.89
2018-09-05T01:40:10.574Z,88.14
2018-09-05T01:42:38.826Z,88.07
2018-09-05T01:45:07.067Z,88.68
2018-09-05T01:47:35.245Z,88.68
2018-09-05T01:50:03.585Z,88.57
2018-09-05T01:52:31.800Z,88.81
2018-09-05T01:54:59.997Z,88.85
2018-09-05T01:57:28.185Z,88.93
2018-09-05T01:59:56.377Z,89.05
2018-09-05T02:02:25.653Z,88.61
2018-09-05T02:04:54.513Z,88.31
2018-09-05T02:07:22.807Z,88.59
2018-09-05T02:09:50.959Z,88.62
2018-09-05T02:12:19.103Z,88.88
2018-09-05T02:14:47.229Z,89.32
2018-09-05T02:17:15.385Z,88.92
2018-09-05T02:19:43.556Z,89.89
2018-09-05T02:22:11.726Z,89.95
2018-09-05T02:24:39.985Z,90.00
2018-09-05T02:27:08.521Z,89.54
2018-09-05T02:29:36.657Z,90.00
2018-09-05T02:32:04.890Z,90.03
2018-09-05T02:34:33.015Z,90.38
2018-09-05T02:37:01.216Z,90.16
2018-09-05T02:39:29.459Z,90.40
2018-09-05T02:41:57.794Z,91.02
2018-09-05T02:44:26.010Z,90.83
2018-09-05T02:46:54.205Z,91.20
2018-09-05T02:49:22.432Z,91.30
2018-09-05T02:51:50.659Z,91.85
2018-09-05T02:54:18.938Z,93.19
2018-09-05T02:56:47.207Z,92.24
2018-09-05T02:59:15.367Z,92.11
2018-09-05T03:01:43.540Z,91.40
2018-09-05T03:04:11.918Z,91.80
2018-09-05T03:06:40.095Z,91.85
2018-09-05T03:09:08.874Z,92.73
2018-09-05T03:11:37.160Z,92.46
2018-09-05T03:14:06.160Z,92.22
2018-09-05T03:16:34.296Z,92.77
2018-09-05T03:19:04.108Z,92.48
2018-09-05T03:21:30.722Z,91.98
2018-09-05T03:23:58.871Z,93.19
2018-09-05T03:26:27.122Z,92.84
2018-09-05T03:28:55.270Z,93.50
2018-09-05T03:31:23.439Z,93.13
2018-09-05T03:33:51.882Z,92.84
2018-09-05T03:36:20.021Z,93.55
2018-09-05T03:38:48.385Z,92.75
2018-09-05T03:41:16.517Z,93.29
2018-09-05T03:43:44.676Z,92.55
2018-09-05T03:46:12.846Z,92.29
2018-09-05T03:48:41.003Z,92.71
2018-09-05T03:51:09.133Z,93.00
2018-09-05T03:53:37.309Z,92.57
2018-09-05T03:56:05.527Z,92.38
2018-09-05T03:58:33.734Z,92.32
2018-09-05T04:01:01.875Z,92.31
2018-09-05T04:03:30.136Z,92.73
2018-09-05T04:05:58.254Z,92.58
2018-09-05T04:08:26.494Z,92.23
2018-09-05T04:10:54.677Z,92.57
2018-09-05T04:13:22.843Z,92.66
2018-09-05T04:15:51.229Z,92.33
2018-09-05T04:18:19.532Z,92.12
2018-09-05T04:20:47.664Z,91.58
2018-09-05T04:23:18.888Z,91.91
2018-09-05T04:25:47.045Z,92.10
2018-09-05T04:28:15.399Z,91.79
2018-09-05T04:30:43.570Z,92.14
2018-09-05T04:33:11.924Z,91.81
2018-09-05T04:35:40.244Z,91.62
2018-09-05T04:38:08.467Z,91.55
2018-09-05T04:40:36.614Z,90.98
2018-09-05T04:43:04.828Z,91.16
2018-09-05T04:45:33.149Z,90.71
2018-09-05T04:48:01.400Z,90.86
2018-09-05T04:50:29.575Z,90.62
2018-09-05T04:52:57.729Z,90.48
2018-09-05T04:55:25.997Z,90.90
2018-09-05T04:57:54.211Z,91.37
2018-09-05T05:00:22.435Z,91.61
2018-09-05T05:02:50.698Z,90.70
2018-09-05T05:05:18.937Z,89.98
2018-09-05T05:07:47.256Z,90.34
2018-09-05T05:10:15.433Z,90.39
2018-09-05T05:12:43.653Z,89.79
2018-09-05T05:15:16.067Z,89.57
2018-09-05T05:17:44.217Z,89.43
2018-09-05T05:20:12.507Z,88.56
2018-09-05T05:22:40.707Z,89.16
2018-09-05T05:25:09.023Z,88.85
2018-09-05T05:27:37.467Z,88.68
2018-09-05T05:30:06.199Z,88.64
2018-09-05T05:32:34.787Z,88.66
2018-09-05T05:35:07.123Z,88.00
2018-09-05T05:37:35.401Z,89.50
2018-09-05T05:40:06.158Z,88.58
2018-09-05T05:42:35.229Z,88.56
2018-09-05T05:45:04.364Z,88.17
2018-09-05T05:47:33.362Z,88.21
2018-09-05T05:50:02.189Z,87.97
2018-09-05T05:52:30.819Z,87.85
2018-09-05T05:54:59.509Z,88.04
2018-09-05T05:57:27.791Z,86.96
2018-09-05T05:59:56.732Z,87.16
2018-09-05T06:02:25.296Z,86.52
2018-09-05T06:04:53.590Z,85.91
2018-09-05T06:07:21.863Z,85.66
2018-09-05T06:09:50.078Z,84.55
2018-09-05T06:12:18.345Z,85.57
2018-09-05T06:14:46.540Z,85.67
2018-09-05T06:17:14.839Z,84.74
2018-09-05T06:19:42.999Z,84.18
2018-09-05T06:22:11.253Z,83.56
2018-09-05T06:24:40.312Z,84.90
2018-09-05T06:27:08.785Z,83.87
2018-09-05T06:29:36.955Z,84.09
2018-09-05T06:32:05.274Z,82.67
2018-09-05T06:34:33.558Z,81.43
2018-09-05T06:37:01.843Z,82.47
2018-09-05T06:39:30.426Z,82.96
2018-09-05T06:41:58.654Z,82.44
2018-09-05T06:44:26.893Z,82.24
2018-09-05T06:46:55.107Z,82.30
2018-09-05T06:49:23.427Z,80.84
2018-09-05T06:51:51.713Z,81.46
2018-09-05T06:54:19.831Z,80.97
2018-09-05T06:56:48.065Z,80.24
2018-09-05T06:59:16.505Z,80.42
2018-09-05T07:01:44.731Z,80.91
2018-09-05T07:04:13.309Z,80.20
2018-09-05T07:06:42.013Z,79.98
2018-09-05T07:09:12.473Z,79.53
2018-09-05T07:11:41.245Z,78.85
2018-09-05T07:14:09.594Z,78.43
2018-09-05T07:16:38.576Z,76.96
2018-09-05T07:19:08.325Z,76.72
2018-09-05T07:21:36.824Z,77.97
2018-09-05T07:24:05.159Z,78.03
2018-09-05T07:26:33.635Z,77.84
2018-09-05T07:29:02.021Z,77.58
2018-09-05T07:31:30.613Z,77.38
2018-09-05T07:33:58.994Z,76.98
2018-09-05T07:36:27.243Z,77.49
2018-09-05T07:38:55.436Z,77.22
2018-09-05T07:41:23.649Z,78.00
2018-09-05T07:43:52.111Z,76.88
2018-09-05T07:46:20.382Z,75.91
2018-09-05T07:48:48.638Z,77.26
2018-09-05T07:51:17.625Z,76.15
2018-09-05T07:53:45.938Z,76.43
2018-09-05T07:56:14.057Z,75.50
2018-09-05T07:58:49.027Z,75.30
2018-09-05T08:01:17.238Z,74.57
2018-09-05T08:03:45.339Z,76.02
2018-09-05T08:06:13.806Z,75.93
2018-09-05T08:08:42.003Z,75.28
2018-09-05T08:11:10.274Z,74.40
2018-09-05T08:13:38.460Z,74.61
2018-09-05T08:16:07.286Z,75.33
2018-09-05T08:18:35.674Z,74.09
2018-09-05T08:21:03.872Z,73.32
2018-09-05T08:23:32.097Z,74.38
2018-09-05T08:26:00.333Z,74.37
2018-09-05T08:28:28.607Z,72.00
2018-09-05T08:30:56.837Z,72.47
2018-09-05T08:33:25.064Z,71.83
2018-09-05T08:35:53.752Z,71.18
2018-09-05T08:38:21.917Z,71.27
2018-09-05T08:40:51.013Z,71.14
2018-09-05T08:43:19.260Z,69.92
2018-09-05T08:45:47.671Z,69.94
2018-09-05T08:48:15.936Z,69.19
2018-09-05T08:50:44.066Z,69.97
2018-09-05T08:53:12.968Z,68.34
2018-09-05T08:55:41.774Z,68.73
2018-09-05T08:58:16.775Z,68.70
2018-09-05T09:00:45.638Z,67.89
2018-09-05T09:03:15.633Z,66.29
2018-09-05T09:05:43.887Z,66.39
2018-09-05T09:08:12.475Z,65.34
2018-09-05T09:10:41.002Z,65.89
2018-09-05T09:13:09.985Z,63.96
2018-09-05T09:15:38.229Z,63.83
2018-09-05T09:18:06.771Z,64.11
2018-09-05T09:20:35.077Z,61.73
2018-09-05T09:23:03.373Z,60.99
2018-09-05T09:25:31.745Z,59.90
2018-09-05T09:27:59.964Z,59.39
2018-09-05T09:30:28.395Z,58.73
2018-09-05T09:32:56.575Z,58.18
2018-09-05T09:35:24.734Z,57.36
2018-09-05T09:37:53.035Z,57.38
2018-09-05T09:40:21.324Z,57.79
2018-09-05T09:42:49.531Z,57.73
2018-09-05T09:45:17.659Z,57.11
2018-09-05T09:47:45.807Z,57.30
2018-09-05T09:50:13.998Z,57.23
2018-09-05T09:52:42.129Z,58.11
2018-09-05T09:55:10.295Z,57.91
2018-09-05T09:57:38.826Z,56.88
2018-09-05T10:00:07.706Z,56.98
2018-09-05T10:02:41.068Z,56.26
2018-09-05T10:05:14.604Z,56.24
2018-09-05T10:07:56.759Z,54.93
2018-09-05T10:10:30.310Z,55.40
2018-09-05T10:13:03.871Z,55.83
2018-09-05T10:15:37.379Z,54.85
2018-09-05T10:18:11.209Z,55.71
2018-09-05T10:20:40.901Z,54.71
2018-09-05T10:23:09.157Z,55.25
2018-09-05T10:25:37.409Z,54.41
2018-09-05T10:28:05.876Z,55.07
2018-09-05T10:30:34.325Z,54.80
2018-09-05T10:33:02.665Z,53.75
2018-09-05T10:35:30.846Z,52.95
2018-09-05T10:37:59.215Z,100.00
2018-09-05T10:40:27.381Z,100.00
2018-09-05T15:10:51.137Z,44.25
2018-09-05T15:13:19.311Z,43.53
2018-09-05T15:15:47.735Z,100.00
2018-09-05T15:20:43.253Z,100.00
